sensor_id;sensor_type;location;lat;lon;timestamp;P1;durP1;ratioP1;P2;durP2;ratioP2
70253;SDS011;57649;42.968;1.608;2023-08-21T00:02:20;9.00;;;7.97;;
70253;SDS011;57649;42.968;1.608;2023-08-21T00:04:46;7.05;;;5.70;;
70253;SDS011;57649;42.968;1.608;2023-08-21T00:07:11;9.00;;;6.15;;
70253;SDS011;57649;42.968;1.608;2023-08-21T00:09:36;8.02;;;5.90;;
70253;SDS011;57649;42.968;1.608;2023-08-21T00:12:02;8.57;;;5.63;;
70253;SDS011;57649;42.968;1.608;2023-08-21T00:14:28;13.77;;;5.72;;
70253;SDS011;57649;42.968;1.608;2023-08-21T00:16:54;7.07;;;6.03;;
70253;SDS011;57649;42.968;1.608;2023-08-21T00:19:19;8.80;;;6.00;;
70253;SDS011;57649;42.968;1.608;2023-08-21T00:21:44;8.93;;;5.50;;
70253;SDS011;57649;42.968;1.608;2023-08-21T00:24:10;8.35;;;5.82;;
70253;SDS011;57649;42.968;1.608;2023-08-21T00:26:36;10.15;;;5.88;;
70253;SDS011;57649;42.968;1.608;2023-08-21T00:29:01;7.50;;;5.95;;
70253;SDS011;57649;42.968;1.608;2023-08-21T00:31:27;6.70;;;5.80;;
70253;SDS011;57649;42.968;1.608;2023-08-21T00:33:52;9.68;;;6.45;;
70253;SDS011;57649;42.968;1.608;2023-08-21T00:36:18;9.15;;;6.10;;
70253;SDS011;57649;42.968;1.608;2023-08-21T00:38:44;9.05;;;6.15;;
70253;SDS011;57649;42.968;1.608;2023-08-21T00:41:10;8.68;;;5.82;;
70253;SDS011;57649;42.968;1.608;2023-08-21T00:43:35;9.50;;;5.78;;
70253;SDS011;57649;42.968;1.608;2023-08-21T00:46:01;9.82;;;5.47;;
70253;SDS011;57649;42.968;1.608;2023-08-21T00:48:27;9.10;;;5.78;;
70253;SDS011;57649;42.968;1.608;2023-08-21T00:50:52;11.02;;;6.70;;
70253;SDS011;57649;42.968;1.608;2023-08-21T00:53:17;10.52;;;6.13;;
70253;SDS011;57649;42.968;1.608;2023-08-21T00:55:43;9.35;;;5.78;;
70253;SDS011;57649;42.968;1.608;2023-08-21T00:58:10;7.63;;;5.68;;
70253;SDS011;57649;42.968;1.608;2023-08-21T01:00:38;14.32;;;6.53;;
70253;SDS011;57649;42.968;1.608;2023-08-21T01:03:05;8.93;;;6.00;;
70253;SDS011;57649;42.968;1.608;2023-08-21T01:05:31;8.90;;;6.20;;
70253;SDS011;57649;42.968;1.608;2023-08-21T01:08:06;6.70;;;5.80;;
70253;SDS011;57649;42.968;1.608;2023-08-21T01:15:48;6.93;;;5.78;;
70253;SDS011;57649;42.968;1.608;2023-08-21T01:20:43;10.25;;;5.63;;
70253;SDS011;57649;42.968;1.608;2023-08-21T01:23:09;8.27;;;5.43;;
70253;SDS011;57649;42.968;1.608;2023-08-21T01:25:34;8.35;;;5.82;;
70253;SDS011;57649;42.968;1.608;2023-08-21T01:28:00;9.18;;;5.38;;
70253;SDS011;57649;42.968;1.608;2023-08-21T01:30:26;7.68;;;5.45;;
70253;SDS011;57649;42.968;1.608;2023-08-21T01:33:06;7.63;;;5.28;;
70253;SDS011;57649;42.968;1.608;2023-08-21T01:35:36;8.40;;;5.72;;
70253;SDS011;57649;42.968;1.608;2023-08-21T01:38:02;7.90;;;5.43;;
70253;SDS011;57649;42.968;1.608;2023-08-21T01:40:28;9.20;;;5.82;;
70253;SDS011;57649;42.968;1.608;2023-08-21T01:42:54;9.43;;;6.00;;
70253;SDS011;57649;42.968;1.608;2023-08-21T01:45:20;7.22;;;5.80;;
70253;SDS011;57649;42.968;1.608;2023-08-21T01:47:46;8.60;;;5.60;;
70253;SDS011;57649;42.968;1.608;2023-08-21T01:50:12;6.97;;;5.70;;
70253;SDS011;57649;42.968;1.608;2023-08-21T01:52:37;8.65;;;5.15;;
70253;SDS011;57649;42.968;1.608;2023-08-21T01:55:02;7.97;;;5.43;;
70253;SDS011;57649;42.968;1.608;2023-08-21T01:57:28;8.20;;;5.10;;
70253;SDS011;57649;42.968;1.608;2023-08-21T01:59:54;7.85;;;5.32;;
70253;SDS011;57649;42.968;1.608;2023-08-21T02:02:20;8.43;;;5.50;;
70253;SDS011;57649;42.968;1.608;2023-08-21T02:04:45;7.60;;;5.53;;
70253;SDS011;57649;42.968;1.608;2023-08-21T02:07:10;10.85;;;5.70;;
70253;SDS011;57649;42.968;1.608;2023-08-21T02:09:36;7.45;;;4.88;;
70253;SDS011;57649;42.968;1.608;2023-08-21T02:12:01;11.77;;;5.82;;
70253;SDS011;57649;42.968;1.608;2023-08-21T02:14:27;6.63;;;5.13;;
70253;SDS011;57649;42.968;1.608;2023-08-21T02:16:53;7.05;;;5.20;;
70253;SDS011;57649;42.968;1.608;2023-08-21T02:19:18;8.20;;;5.32;;
70253;SDS011;57649;42.968;1.608;2023-08-21T02:21:44;5.47;;;4.97;;
70253;SDS011;57649;42.968;1.608;2023-08-21T02:24:09;8.45;;;5.50;;
70253;SDS011;57649;42.968;1.608;2023-08-21T02:26:34;6.88;;;5.35;;
70253;SDS011;57649;42.968;1.608;2023-08-21T02:29:00;9.18;;;5.45;;
70253;SDS011;57649;42.968;1.608;2023-08-21T02:31:25;8.52;;;5.30;;
70253;SDS011;57649;42.968;1.608;2023-08-21T02:33:51;7.50;;;5.28;;
70253;SDS011;57649;42.968;1.608;2023-08-21T02:36:16;8.02;;;5.10;;
70253;SDS011;57649;42.968;1.608;2023-08-21T02:38:42;7.65;;;5.90;;
70253;SDS011;57649;42.968;1.608;2023-08-21T02:41:07;7.38;;;4.97;;
70253;SDS011;57649;42.968;1.608;2023-08-21T02:43:33;9.40;;;5.20;;
70253;SDS011;57649;42.968;1.608;2023-08-21T02:45:59;8.40;;;5.03;;
70253;SDS011;57649;42.968;1.608;2023-08-21T02:48:24;6.75;;;5.85;;
70253;SDS011;57649;42.968;1.608;2023-08-21T02:50:50;6.32;;;5.22;;
70253;SDS011;57649;42.968;1.608;2023-08-21T02:53:15;9.52;;;5.65;;
70253;SDS011;57649;42.968;1.608;2023-08-21T02:55:40;8.25;;;7.18;;
70253;SDS011;57649;42.968;1.608;2023-08-21T02:58:06;39.28;;;33.65;;
70253;SDS011;57649;42.968;1.608;2023-08-21T03:00:31;46.90;;;40.10;;
70253;SDS011;57649;42.968;1.608;2023-08-21T03:02:57;35.30;;;31.45;;
70253;SDS011;57649;42.968;1.608;2023-08-21T03:05:22;25.45;;;22.83;;
70253;SDS011;57649;42.968;1.608;2023-08-21T03:07:48;19.42;;;15.43;;
70253;SDS011;57649;42.968;1.608;2023-08-21T03:10:13;11.40;;;10.13;;
70253;SDS011;57649;42.968;1.608;2023-08-21T03:12:38;9.05;;;6.43;;
70253;SDS011;57649;42.968;1.608;2023-08-21T03:15:04;12.80;;;6.93;;
70253;SDS011;57649;42.968;1.608;2023-08-21T03:17:30;8.82;;;6.03;;
70253;SDS011;57649;42.968;1.608;2023-08-21T03:19:55;8.68;;;6.10;;
70253;SDS011;57649;42.968;1.608;2023-08-21T03:22:21;10.00;;;6.20;;
70253;SDS011;57649;42.968;1.608;2023-08-21T03:24:46;11.20;;;6.10;;
70253;SDS011;57649;42.968;1.608;2023-08-21T03:27:13;7.43;;;5.68;;
70253;SDS011;57649;42.968;1.608;2023-08-21T03:29:40;10.05;;;5.65;;
70253;SDS011;57649;42.968;1.608;2023-08-21T03:32:05;8.10;;;5.55;;
70253;SDS011;57649;42.968;1.608;2023-08-21T03:34:31;7.43;;;5.40;;
70253;SDS011;57649;42.968;1.608;2023-08-21T03:36:56;7.50;;;5.93;;
70253;SDS011;57649;42.968;1.608;2023-08-21T03:39:22;10.23;;;5.82;;
70253;SDS011;57649;42.968;1.608;2023-08-21T03:41:47;7.03;;;5.53;;
70253;SDS011;57649;42.968;1.608;2023-08-21T03:44:12;7.65;;;5.75;;
70253;SDS011;57649;42.968;1.608;2023-08-21T03:46:38;8.40;;;6.10;;
70253;SDS011;57649;42.968;1.608;2023-08-21T03:49:04;7.85;;;5.60;;
70253;SDS011;57649;42.968;1.608;2023-08-21T03:51:29;7.75;;;5.93;;
70253;SDS011;57649;42.968;1.608;2023-08-21T03:53:55;7.72;;;5.85;;
70253;SDS011;57649;42.968;1.608;2023-08-21T03:56:20;9.95;;;5.68;;
70253;SDS011;57649;42.968;1.608;2023-08-21T03:58:46;8.48;;;6.25;;
70253;SDS011;57649;42.968;1.608;2023-08-21T04:01:13;8.88;;;5.63;;
70253;SDS011;57649;42.968;1.608;2023-08-21T04:03:38;11.07;;;5.35;;
70253;SDS011;57649;42.968;1.608;2023-08-21T04:06:04;11.57;;;6.03;;
70253;SDS011;57649;42.968;1.608;2023-08-21T04:08:29;12.02;;;6.07;;
70253;SDS011;57649;42.968;1.608;2023-08-21T04:10:54;7.20;;;6.03;;
70253;SDS011;57649;42.968;1.608;2023-08-21T04:15:49;7.43;;;5.72;;
70253;SDS011;57649;42.968;1.608;2023-08-21T04:18:16;8.90;;;5.28;;
70253;SDS011;57649;42.968;1.608;2023-08-21T04:20:41;7.40;;;5.55;;
70253;SDS011;57649;42.968;1.608;2023-08-21T04:23:06;8.10;;;5.45;;
70253;SDS011;57649;42.968;1.608;2023-08-21T04:25:32;10.27;;;5.82;;
70253;SDS011;57649;42.968;1.608;2023-08-21T04:27:57;6.15;;;5.20;;
70253;SDS011;57649;42.968;1.608;2023-08-21T04:30:23;8.18;;;5.57;;
70253;SDS011;57649;42.968;1.608;2023-08-21T04:32:48;7.53;;;5.75;;
70253;SDS011;57649;42.968;1.608;2023-08-21T04:35:13;10.18;;;6.13;;
70253;SDS011;57649;42.968;1.608;2023-08-21T04:37:42;7.78;;;6.18;;
70253;SDS011;57649;42.968;1.608;2023-08-21T04:40:09;9.20;;;5.97;;
70253;SDS011;57649;42.968;1.608;2023-08-21T04:42:36;7.22;;;5.50;;
70253;SDS011;57649;42.968;1.608;2023-08-21T04:45:01;10.55;;;5.78;;
70253;SDS011;57649;42.968;1.608;2023-08-21T04:47:27;9.68;;;5.53;;
70253;SDS011;57649;42.968;1.608;2023-08-21T04:49:53;10.40;;;5.90;;
70253;SDS011;57649;42.968;1.608;2023-08-21T04:52:20;7.78;;;5.38;;
70253;SDS011;57649;42.968;1.608;2023-08-21T04:54:50;9.82;;;5.90;;
70253;SDS011;57649;42.968;1.608;2023-08-21T04:57:16;7.25;;;5.60;;
70253;SDS011;57649;42.968;1.608;2023-08-21T04:59:42;8.18;;;5.68;;
70253;SDS011;57649;42.968;1.608;2023-08-21T05:02:08;10.40;;;5.75;;
70253;SDS011;57649;42.968;1.608;2023-08-21T05:04:35;9.48;;;5.88;;
70253;SDS011;57649;42.968;1.608;2023-08-21T05:07:02;10.23;;;5.30;;
70253;SDS011;57649;42.968;1.608;2023-08-21T05:09:28;13.48;;;9.60;;
70253;SDS011;57649;42.968;1.608;2023-08-21T05:11:54;7.55;;;5.93;;
70253;SDS011;57649;42.968;1.608;2023-08-21T05:14:20;10.32;;;6.10;;
70253;SDS011;57649;42.968;1.608;2023-08-21T05:16:48;8.25;;;5.82;;
70253;SDS011;57649;42.968;1.608;2023-08-21T05:19:14;8.60;;;5.88;;
70253;SDS011;57649;42.968;1.608;2023-08-21T05:21:39;8.98;;;6.88;;
70253;SDS011;57649;42.968;1.608;2023-08-21T05:24:05;10.50;;;6.38;;
70253;SDS011;57649;42.968;1.608;2023-08-21T05:26:30;10.65;;;6.57;;
70253;SDS011;57649;42.968;1.608;2023-08-21T05:28:56;9.13;;;6.75;;
70253;SDS011;57649;42.968;1.608;2023-08-21T05:31:21;12.50;;;6.10;;
70253;SDS011;57649;42.968;1.608;2023-08-21T05:33:47;8.05;;;6.00;;
70253;SDS011;57649;42.968;1.608;2023-08-21T05:36:12;9.90;;;6.05;;
70253;SDS011;57649;42.968;1.608;2023-08-21T05:38:37;8.85;;;6.65;;
70253;SDS011;57649;42.968;1.608;2023-08-21T05:41:03;8.23;;;5.78;;
70253;SDS011;57649;42.968;1.608;2023-08-21T05:43:28;10.65;;;5.97;;
70253;SDS011;57649;42.968;1.608;2023-08-21T05:45:54;6.57;;;5.82;;
70253;SDS011;57649;42.968;1.608;2023-08-21T05:48:19;8.70;;;5.82;;
70253;SDS011;57649;42.968;1.608;2023-08-21T05:50:45;9.55;;;7.00;;
70253;SDS011;57649;42.968;1.608;2023-08-21T05:53:16;7.38;;;5.70;;
70253;SDS011;57649;42.968;1.608;2023-08-21T05:55:41;10.90;;;6.40;;
70253;SDS011;57649;42.968;1.608;2023-08-21T05:58:06;10.55;;;6.47;;
70253;SDS011;57649;42.968;1.608;2023-08-21T06:00:33;10.80;;;6.95;;
70253;SDS011;57649;42.968;1.608;2023-08-21T06:02:58;9.65;;;6.40;;
70253;SDS011;57649;42.968;1.608;2023-08-21T06:05:24;8.25;;;5.93;;
70253;SDS011;57649;42.968;1.608;2023-08-21T06:07:49;9.73;;;6.50;;
70253;SDS011;57649;42.968;1.608;2023-08-21T06:10:15;10.05;;;5.72;;
70253;SDS011;57649;42.968;1.608;2023-08-21T06:12:40;9.45;;;6.60;;
70253;SDS011;57649;42.968;1.608;2023-08-21T06:15:06;10.57;;;6.05;;
70253;SDS011;57649;42.968;1.608;2023-08-21T06:17:35;11.25;;;5.88;;
70253;SDS011;57649;42.968;1.608;2023-08-21T06:20:02;10.02;;;6.50;;
70253;SDS011;57649;42.968;1.608;2023-08-21T06:22:30;12.37;;;6.50;;
70253;SDS011;57649;42.968;1.608;2023-08-21T06:24:56;11.52;;;6.65;;
70253;SDS011;57649;42.968;1.608;2023-08-21T06:27:21;10.07;;;5.90;;
70253;SDS011;57649;42.968;1.608;2023-08-21T06:29:46;9.57;;;6.40;;
70253;SDS011;57649;42.968;1.608;2023-08-21T06:32:12;12.15;;;7.10;;
70253;SDS011;57649;42.968;1.608;2023-08-21T06:34:37;8.70;;;6.38;;
70253;SDS011;57649;42.968;1.608;2023-08-21T06:37:03;7.80;;;5.88;;
70253;SDS011;57649;42.968;1.608;2023-08-21T06:39:28;9.88;;;6.05;;
70253;SDS011;57649;42.968;1.608;2023-08-21T06:41:53;12.63;;;6.93;;
70253;SDS011;57649;42.968;1.608;2023-08-21T06:44:20;10.73;;;6.35;;
70253;SDS011;57649;42.968;1.608;2023-08-21T06:46:45;9.13;;;6.35;;
70253;SDS011;57649;42.968;1.608;2023-08-21T06:49:11;10.43;;;6.20;;
70253;SDS011;57649;42.968;1.608;2023-08-21T06:51:36;9.25;;;6.50;;
70253;SDS011;57649;42.968;1.608;2023-08-21T06:54:01;10.40;;;6.32;;
70253;SDS011;57649;42.968;1.608;2023-08-21T06:56:27;11.15;;;6.05;;
70253;SDS011;57649;42.968;1.608;2023-08-21T06:58:52;10.85;;;6.13;;
70253;SDS011;57649;42.968;1.608;2023-08-21T07:01:20;7.88;;;6.43;;
70253;SDS011;57649;42.968;1.608;2023-08-21T07:03:46;9.63;;;6.80;;
70253;SDS011;57649;42.968;1.608;2023-08-21T07:06:11;9.43;;;6.82;;
70253;SDS011;57649;42.968;1.608;2023-08-21T07:08:36;8.07;;;5.60;;
70253;SDS011;57649;42.968;1.608;2023-08-21T07:11:02;10.50;;;7.05;;
70253;SDS011;57649;42.968;1.608;2023-08-21T07:13:31;10.33;;;6.57;;
70253;SDS011;57649;42.968;1.608;2023-08-21T07:15:56;9.20;;;6.18;;
70253;SDS011;57649;42.968;1.608;2023-08-21T07:18:22;10.95;;;6.30;;
70253;SDS011;57649;42.968;1.608;2023-08-21T07:20:47;10.35;;;5.85;;
70253;SDS011;57649;42.968;1.608;2023-08-21T07:23:13;9.15;;;6.93;;
70253;SDS011;57649;42.968;1.608;2023-08-21T07:25:38;10.30;;;6.50;;
70253;SDS011;57649;42.968;1.608;2023-08-21T07:28:03;10.90;;;6.20;;
70253;SDS011;57649;42.968;1.608;2023-08-21T07:30:29;8.95;;;6.00;;
70253;SDS011;57649;42.968;1.608;2023-08-21T07:32:54;10.27;;;6.65;;
70253;SDS011;57649;42.968;1.608;2023-08-21T07:35:20;9.63;;;5.88;;
70253;SDS011;57649;42.968;1.608;2023-08-21T07:37:45;8.65;;;6.60;;
70253;SDS011;57649;42.968;1.608;2023-08-21T07:40:11;7.30;;;6.45;;
70253;SDS011;57649;42.968;1.608;2023-08-21T07:42:37;11.77;;;5.90;;
70253;SDS011;57649;42.968;1.608;2023-08-21T07:45:03;9.48;;;6.38;;
70253;SDS011;57649;42.968;1.608;2023-08-21T07:47:28;9.45;;;6.00;;
70253;SDS011;57649;42.968;1.608;2023-08-21T07:49:54;10.27;;;6.47;;
70253;SDS011;57649;42.968;1.608;2023-08-21T07:52:21;8.40;;;6.15;;
70253;SDS011;57649;42.968;1.608;2023-08-21T07:54:50;8.45;;;5.57;;
70253;SDS011;57649;42.968;1.608;2023-08-21T07:57:16;8.25;;;6.05;;
70253;SDS011;57649;42.968;1.608;2023-08-21T07:59:42;10.70;;;6.28;;
70253;SDS011;57649;42.968;1.608;2023-08-21T08:02:08;7.22;;;5.68;;
70253;SDS011;57649;42.968;1.608;2023-08-21T08:04:33;10.25;;;5.78;;
70253;SDS011;57649;42.968;1.608;2023-08-21T08:06:59;10.95;;;5.57;;
70253;SDS011;57649;42.968;1.608;2023-08-21T08:09:24;11.23;;;6.43;;
70253;SDS011;57649;42.968;1.608;2023-08-21T08:11:50;12.05;;;5.45;;
70253;SDS011;57649;42.968;1.608;2023-08-21T08:14:15;9.57;;;5.30;;
70253;SDS011;57649;42.968;1.608;2023-08-21T08:16:41;11.55;;;5.30;;
70253;SDS011;57649;42.968;1.608;2023-08-21T08:19:06;7.90;;;5.03;;
70253;SDS011;57649;42.968;1.608;2023-08-21T08:21:32;7.70;;;5.07;;
70253;SDS011;57649;42.968;1.608;2023-08-21T08:23:58;10.52;;;5.30;;
70253;SDS011;57649;42.968;1.608;2023-08-21T08:26:23;8.18;;;4.90;;
70253;SDS011;57649;42.968;1.608;2023-08-21T08:28:49;9.35;;;4.80;;
70253;SDS011;57649;42.968;1.608;2023-08-21T08:31:15;7.15;;;4.97;;
70253;SDS011;57649;42.968;1.608;2023-08-21T08:33:43;7.40;;;5.22;;
70253;SDS011;57649;42.968;1.608;2023-08-21T08:36:09;9.10;;;5.60;;
70253;SDS011;57649;42.968;1.608;2023-08-21T08:38:35;8.73;;;4.68;;
70253;SDS011;57649;42.968;1.608;2023-08-21T08:41:01;8.23;;;4.95;;
70253;SDS011;57649;42.968;1.608;2023-08-21T08:43:27;8.02;;;5.00;;
70253;SDS011;57649;42.968;1.608;2023-08-21T08:45:54;9.77;;;5.35;;
70253;SDS011;57649;42.968;1.608;2023-08-21T08:48:25;12.63;;;5.97;;
70253;SDS011;57649;42.968;1.608;2023-08-21T08:50:51;7.13;;;5.38;;
70253;SDS011;57649;42.968;1.608;2023-08-21T08:53:17;11.65;;;5.30;;
70253;SDS011;57649;42.968;1.608;2023-08-21T08:55:46;9.45;;;5.20;;
70253;SDS011;57649;42.968;1.608;2023-08-21T08:58:11;9.65;;;5.07;;
70253;SDS011;57649;42.968;1.608;2023-08-21T09:00:37;6.72;;;4.63;;
70253;SDS011;57649;42.968;1.608;2023-08-21T09:03:02;8.50;;;4.82;;
70253;SDS011;57649;42.968;1.608;2023-08-21T09:05:29;6.65;;;4.78;;
70253;SDS011;57649;42.968;1.608;2023-08-21T09:10:39;7.78;;;4.90;;
70253;SDS011;57649;42.968;1.608;2023-08-21T09:13:16;9.55;;;5.13;;
70253;SDS011;57649;42.968;1.608;2023-08-21T09:15:44;9.95;;;5.90;;
70253;SDS011;57649;42.968;1.608;2023-08-21T09:18:17;8.63;;;4.50;;
70253;SDS011;57649;42.968;1.608;2023-08-21T09:20:43;10.88;;;5.40;;
70253;SDS011;57649;42.968;1.608;2023-08-21T09:23:12;9.20;;;5.53;;
70253;SDS011;57649;42.968;1.608;2023-08-21T09:25:43;8.85;;;4.88;;
70253;SDS011;57649;42.968;1.608;2023-08-21T09:28:12;8.07;;;5.85;;
70253;SDS011;57649;42.968;1.608;2023-08-21T09:30:54;7.50;;;4.80;;
70253;SDS011;57649;42.968;1.608;2023-08-21T09:33:20;10.52;;;5.03;;
70253;SDS011;57649;42.968;1.608;2023-08-21T09:35:48;8.20;;;5.05;;
70253;SDS011;57649;42.968;1.608;2023-08-21T09:38:14;10.27;;;4.88;;
70253;SDS011;57649;42.968;1.608;2023-08-21T09:40:40;7.25;;;4.60;;
70253;SDS011;57649;42.968;1.608;2023-08-21T09:43:07;10.85;;;4.78;;
70253;SDS011;57649;42.968;1.608;2023-08-21T09:45:35;7.68;;;4.63;;
70253;SDS011;57649;42.968;1.608;2023-08-21T09:48:01;7.57;;;4.20;;
70253;SDS011;57649;42.968;1.608;2023-08-21T09:50:28;7.22;;;4.22;;
70253;SDS011;57649;42.968;1.608;2023-08-21T09:52:54;7.93;;;4.55;;
70253;SDS011;57649;42.968;1.608;2023-08-21T09:55:22;9.25;;;4.28;;
70253;SDS011;57649;42.968;1.608;2023-08-21T09:57:54;10.45;;;4.80;;
70253;SDS011;57649;42.968;1.608;2023-08-21T10:00:25;6.70;;;4.60;;
70253;SDS011;57649;42.968;1.608;2023-08-21T10:05:18;13.02;;;6.95;;
70253;SDS011;57649;42.968;1.608;2023-08-21T10:07:46;11.05;;;5.00;;
70253;SDS011;57649;42.968;1.608;2023-08-21T10:10:13;9.02;;;4.50;;
70253;SDS011;57649;42.968;1.608;2023-08-21T10:12:39;8.88;;;4.68;;
70253;SDS011;57649;42.968;1.608;2023-08-21T10:15:05;9.73;;;4.90;;
70253;SDS011;57649;42.968;1.608;2023-08-21T10:17:32;7.00;;;4.20;;
70253;SDS011;57649;42.968;1.608;2023-08-21T10:20:05;8.30;;;4.40;;
70253;SDS011;57649;42.968;1.608;2023-08-21T10:22:44;8.52;;;4.38;;
70253;SDS011;57649;42.968;1.608;2023-08-21T10:25:21;6.40;;;4.20;;
70253;SDS011;57649;42.968;1.608;2023-08-21T10:27:51;7.70;;;4.38;;
70253;SDS011;57649;42.968;1.608;2023-08-21T10:30:24;8.68;;;4.68;;
70253;SDS011;57649;42.968;1.608;2023-08-21T10:32:52;5.15;;;3.72;;
70253;SDS011;57649;42.968;1.608;2023-08-21T10:35:22;8.98;;;4.72;;
70253;SDS011;57649;42.968;1.608;2023-08-21T10:38:15;8.70;;;4.18;;
70253;SDS011;57649;42.968;1.608;2023-08-21T10:43:37;8.68;;;4.15;;
70253;SDS011;57649;42.968;1.608;2023-08-21T10:46:04;7.88;;;4.15;;
70253;SDS011;57649;42.968;1.608;2023-08-21T10:48:30;7.20;;;4.05;;
70253;SDS011;57649;42.968;1.608;2023-08-21T10:50:55;7.20;;;4.38;;
70253;SDS011;57649;42.968;1.608;2023-08-21T10:53:23;11.18;;;4.25;;
70253;SDS011;57649;42.968;1.608;2023-08-21T10:55:55;5.78;;;4.10;;
70253;SDS011;57649;42.968;1.608;2023-08-21T10:58:21;8.23;;;3.72;;
70253;SDS011;57649;42.968;1.608;2023-08-21T11:00:46;7.75;;;4.38;;
70253;SDS011;57649;42.968;1.608;2023-08-21T11:03:12;7.70;;;4.13;;
70253;SDS011;57649;42.968;1.608;2023-08-21T11:05:40;6.70;;;4.10;;
70253;SDS011;57649;42.968;1.608;2023-08-21T11:08:05;8.55;;;4.10;;
70253;SDS011;57649;42.968;1.608;2023-08-21T11:10:31;10.60;;;4.18;;
70253;SDS011;57649;42.968;1.608;2023-08-21T11:12:57;8.30;;;4.60;;
70253;SDS011;57649;42.968;1.608;2023-08-21T11:15:25;6.55;;;3.90;;
70253;SDS011;57649;42.968;1.608;2023-08-21T11:17:53;5.68;;;3.75;;
70253;SDS011;57649;42.968;1.608;2023-08-21T11:20:18;6.88;;;3.83;;
70253;SDS011;57649;42.968;1.608;2023-08-21T11:22:44;8.50;;;4.00;;
70253;SDS011;57649;42.968;1.608;2023-08-21T11:25:09;9.05;;;4.03;;
70253;SDS011;57649;42.968;1.608;2023-08-21T11:27:35;7.30;;;4.03;;
70253;SDS011;57649;42.968;1.608;2023-08-21T11:30:00;6.28;;;4.07;;
70253;SDS011;57649;42.968;1.608;2023-08-21T11:32:26;9.30;;;4.10;;
70253;SDS011;57649;42.968;1.608;2023-08-21T11:34:53;8.70;;;4.25;;
70253;SDS011;57649;42.968;1.608;2023-08-21T11:37:26;8.40;;;3.55;;
70253;SDS011;57649;42.968;1.608;2023-08-21T11:42:19;5.97;;;4.03;;
70253;SDS011;57649;42.968;1.608;2023-08-21T11:44:47;5.40;;;3.88;;
70253;SDS011;57649;42.968;1.608;2023-08-21T11:47:17;7.38;;;3.65;;
70253;SDS011;57649;42.968;1.608;2023-08-21T11:49:47;6.65;;;3.70;;
70253;SDS011;57649;42.968;1.608;2023-08-21T11:52:17;6.55;;;3.88;;
70253;SDS011;57649;42.968;1.608;2023-08-21T11:54:46;6.65;;;3.45;;
70253;SDS011;57649;42.968;1.608;2023-08-21T11:57:13;10.35;;;3.85;;
70253;SDS011;57649;42.968;1.608;2023-08-21T11:59:40;6.60;;;3.58;;
70253;SDS011;57649;42.968;1.608;2023-08-21T12:02:17;8.13;;;4.00;;
70253;SDS011;57649;42.968;1.608;2023-08-21T12:04:43;6.37;;;3.70;;
70253;SDS011;57649;42.968;1.608;2023-08-21T12:07:09;8.23;;;3.75;;
70253;SDS011;57649;42.968;1.608;2023-08-21T12:09:34;6.82;;;3.67;;
70253;SDS011;57649;42.968;1.608;2023-08-21T12:12:00;6.05;;;3.45;;
70253;SDS011;57649;42.968;1.608;2023-08-21T12:14:27;6.75;;;3.42;;
70253;SDS011;57649;42.968;1.608;2023-08-21T12:16:53;6.32;;;3.22;;
70253;SDS011;57649;42.968;1.608;2023-08-21T12:19:19;5.93;;;3.63;;
70253;SDS011;57649;42.968;1.608;2023-08-21T12:21:46;8.10;;;4.03;;
70253;SDS011;57649;42.968;1.608;2023-08-21T12:24:12;6.05;;;3.20;;
70253;SDS011;57649;42.968;1.608;2023-08-21T12:26:37;8.07;;;3.50;;
70253;SDS011;57649;42.968;1.608;2023-08-21T12:29:02;8.40;;;3.20;;
70253;SDS011;57649;42.968;1.608;2023-08-21T12:31:28;4.72;;;3.33;;
70253;SDS011;57649;42.968;1.608;2023-08-21T12:33:54;7.82;;;3.75;;
70253;SDS011;57649;42.968;1.608;2023-08-21T12:36:19;6.22;;;3.10;;
70253;SDS011;57649;42.968;1.608;2023-08-21T12:38:45;6.05;;;3.55;;
70253;SDS011;57649;42.968;1.608;2023-08-21T12:41:10;6.68;;;3.50;;
70253;SDS011;57649;42.968;1.608;2023-08-21T12:43:36;5.70;;;3.30;;
70253;SDS011;57649;42.968;1.608;2023-08-21T12:46:01;5.05;;;3.33;;
70253;SDS011;57649;42.968;1.608;2023-08-21T12:48:27;8.32;;;3.50;;
70253;SDS011;57649;42.968;1.608;2023-08-21T12:50:52;5.03;;;3.10;;
70253;SDS011;57649;42.968;1.608;2023-08-21T12:53:18;6.28;;;3.28;;
70253;SDS011;57649;42.968;1.608;2023-08-21T12:55:43;6.47;;;3.45;;
70253;SDS011;57649;42.968;1.608;2023-08-21T12:58:09;4.72;;;3.22;;
70253;SDS011;57649;42.968;1.608;2023-08-21T13:00:34;7.68;;;3.33;;
70253;SDS011;57649;42.968;1.608;2023-08-21T13:03:00;5.68;;;3.30;;
70253;SDS011;57649;42.968;1.608;2023-08-21T13:05:25;4.82;;;3.53;;
70253;SDS011;57649;42.968;1.608;2023-08-21T13:07:51;5.35;;;3.00;;
70253;SDS011;57649;42.968;1.608;2023-08-21T13:10:17;6.30;;;2.95;;
70253;SDS011;57649;42.968;1.608;2023-08-21T13:12:42;8.57;;;3.42;;
70253;SDS011;57649;42.968;1.608;2023-08-21T13:15:08;6.28;;;3.55;;
70253;SDS011;57649;42.968;1.608;2023-08-21T13:17:34;4.45;;;2.88;;
70253;SDS011;57649;42.968;1.608;2023-08-21T13:20:00;5.30;;;3.38;;
70253;SDS011;57649;42.968;1.608;2023-08-21T13:22:25;5.00;;;2.97;;
70253;SDS011;57649;42.968;1.608;2023-08-21T13:24:50;6.90;;;3.17;;
70253;SDS011;57649;42.968;1.608;2023-08-21T13:27:16;5.80;;;3.17;;
70253;SDS011;57649;42.968;1.608;2023-08-21T13:29:41;8.50;;;3.63;;
70253;SDS011;57649;42.968;1.608;2023-08-21T13:32:07;7.28;;;3.03;;
70253;SDS011;57649;42.968;1.608;2023-08-21T13:34:32;5.43;;;3.13;;
70253;SDS011;57649;42.968;1.608;2023-08-21T13:36:58;6.95;;;3.17;;
70253;SDS011;57649;42.968;1.608;2023-08-21T13:39:23;5.10;;;3.00;;
70253;SDS011;57649;42.968;1.608;2023-08-21T13:41:51;6.32;;;3.05;;
70253;SDS011;57649;42.968;1.608;2023-08-21T13:44:16;9.82;;;3.25;;
70253;SDS011;57649;42.968;1.608;2023-08-21T13:46:42;5.43;;;3.10;;
70253;SDS011;57649;42.968;1.608;2023-08-21T13:49:07;6.43;;;3.30;;
70253;SDS011;57649;42.968;1.608;2023-08-21T13:51:34;7.47;;;2.88;;
70253;SDS011;57649;42.968;1.608;2023-08-21T13:53:59;6.35;;;3.05;;
70253;SDS011;57649;42.968;1.608;2023-08-21T13:56:25;6.15;;;2.83;;
70253;SDS011;57649;42.968;1.608;2023-08-21T13:58:50;5.68;;;2.67;;
70253;SDS011;57649;42.968;1.608;2023-08-21T14:01:16;4.60;;;2.65;;
70253;SDS011;57649;42.968;1.608;2023-08-21T14:03:41;6.35;;;2.70;;
70253;SDS011;57649;42.968;1.608;2023-08-21T14:06:07;9.88;;;3.00;;
70253;SDS011;57649;42.968;1.608;2023-08-21T14:08:37;5.40;;;2.80;;
70253;SDS011;57649;42.968;1.608;2023-08-21T14:11:02;8.98;;;3.22;;
70253;SDS011;57649;42.968;1.608;2023-08-21T14:13:28;7.10;;;3.08;;
70253;SDS011;57649;42.968;1.608;2023-08-21T14:15:53;4.90;;;2.90;;
70253;SDS011;57649;42.968;1.608;2023-08-21T14:18:19;6.13;;;2.55;;
70253;SDS011;57649;42.968;1.608;2023-08-21T14:20:44;6.82;;;3.60;;
70253;SDS011;57649;42.968;1.608;2023-08-21T14:23:09;6.32;;;3.15;;
70253;SDS011;57649;42.968;1.608;2023-08-21T14:25:35;4.72;;;2.65;;
70253;SDS011;57649;42.968;1.608;2023-08-21T14:28:02;5.50;;;2.88;;
70253;SDS011;57649;42.968;1.608;2023-08-21T14:30:28;6.45;;;2.80;;
70253;SDS011;57649;42.968;1.608;2023-08-21T14:32:53;8.90;;;2.97;;
70253;SDS011;57649;42.968;1.608;2023-08-21T14:35:19;6.43;;;3.08;;
70253;SDS011;57649;42.968;1.608;2023-08-21T14:37:44;4.40;;;3.20;;
70253;SDS011;57649;42.968;1.608;2023-08-21T14:40:10;8.38;;;2.80;;
70253;SDS011;57649;42.968;1.608;2023-08-21T14:42:36;7.30;;;3.00;;
70253;SDS011;57649;42.968;1.608;2023-08-21T14:45:02;6.15;;;3.38;;
70253;SDS011;57649;42.968;1.608;2023-08-21T14:47:28;4.80;;;2.80;;
70253;SDS011;57649;42.968;1.608;2023-08-21T14:49:53;6.47;;;2.67;;
70253;SDS011;57649;42.968;1.608;2023-08-21T14:52:20;4.82;;;2.72;;
70253;SDS011;57649;42.968;1.608;2023-08-21T14:54:45;6.07;;;3.00;;
70253;SDS011;57649;42.968;1.608;2023-08-21T14:57:13;8.52;;;2.78;;
70253;SDS011;57649;42.968;1.608;2023-08-21T14:59:38;6.43;;;2.97;;
70253;SDS011;57649;42.968;1.608;2023-08-21T15:02:04;8.30;;;3.05;;